Weather at London Luton Airport

Public forecast

Using degrees Celsius for public forecast. Weather courtesy of forecast.io.

Current aviation weather report (METAR) for London Luton Airport

2024/07/13 00:20 (retrieved 11 minutes ago)

EGGW 130020Z AUTO 32007KT 9999 FEW025 12/09 Q1016

Closest aviation forecast (TAF) to London Luton Airport

Closest forecast is RAF Northolt, 19.4 nm (35.9 km) S.

2024/07/12 18:45 (retrieved 6 hours ago)

TAF EGWU 121942Z 1218/1312 CNL